CheckWX is a tool to help pilots better visualize weather data.  It is not intended as a substitute for an official pre-flight weather briefing.

23:51:23 UTC

KFTK TAF
Godman AAF Airport
Fort Knox, Kentucky, USA
TAF KFTK 181700Z 1817/1923 VRB06KT 9999 FEW250 QNH2984INS TX17/1917Z TN06/1912Z

Oct-18@
17:00 UTC

Oct-18 @ 17:00 UTC

Oct-19@
23:00 UTC

Oct-19 @ 23:00 UTC

TAF KFTK 181700Z 1817/1923 VRB06KT 9999 FEW250 QNH2984INS TX17/1917Z TN06/1912Z
Wind
  • Variable at 6 KTS
Cloud Levels
  • Few at 25,000' AGL